Bigfork, MN (56628)

2:42 PM CDT on July 29, 2015 (GMT -0500)
Bigfork Municipal | | Change Station
CLOSE
Current Station
Airport
Location: Bigfork,
Elevation: 1348 ft
Nearby Weather Stations
Active Advisory: Wind Advisory Active Notice: Public Information Statement

Elev 1348 ft 47.78 °N, 93.65 °W | Updated 9 minutes ago

Scattered Clouds
Scattered Clouds
70 °F
Feels Like 70 °F
N
14
Wind Variable Wind from West
Gusts 25 mph

Today
High -- | Low -- °F
--% Chance of Precip.
Yesterday
High -- | Low -- °F
Precip. -- in
5:47 AM 8:54 PM
Waxing Gibbous, 96% visible
Pressure 29.75 in
Visibility 10.0 miles
Clouds Scattered Clouds 4400 ft
Scattered Clouds 5000 ft
Dew Point 55 °F
Humidity 60%
Rainfall 0.00 in
Snow Depth Not available.
UV 7 out of 12
Pollen 7.50 out of 12
Air Quality Not available.
Flu Activity Not available.
METAR KFOZ 291933Z AUTO 26012G22KT 10SM SCT044 SCT050 21/13 A2975 RMK AO2

More Conditions Fewer Conditions

Pressure 29.75 in
Visibility 10.0 miles
Clouds Scattered Clouds 4400 ft
Scattered Clouds 5000 ft
Dew Point 55 °F
Humidity 60%
Rainfall 0.00 in
Snow Depth Not available.
UV 7 out of 12
Pollen 7.50 out of 12
Air Quality Not available.
Flu Activity Not available.
METAR KFOZ 291933Z AUTO 26012G22KT 10SM SCT044 SCT050 21/13 A2975 RMK AO2

More Conditions Fewer Conditions

10-Day Weather Forecast

×

Almanac

Astronomy

Jul. 29, 2015 Rise Set
Actual Time
Civil Twilight
Nautical Twilight
Astronomical Twilight
Moon
Length of Visible Light
Length of Day
Tomorrow will be .
, % of the Moon is Illuminated

Today's Extremes

State Highs State Lows

Community

WunderPhotos

Upload Photos

1,842,156 photos uploaded!

WunderBlogs® & News

Nearby

Air Quality

  Air Quality AQ Index Pollutant
Not available.

Snow Depth

Station Depth Elevation

Earthquake Activity

City Distance Mag. Time & Date
Minimum magnitude displayed is 2.5.

Coastal Water Temperatures

Place Temperature

Stations

Nearby Weather Stations

Station Location Temp. Windchill Dew Point Humidity Wind Precip. Elev Updated Type
                   
Wind Advisory
Statement as of 9:19 AM CDT on July 29, 2015

... Wind Advisory remains in effect until 7 PM CDT this evening...

* location... northeast Minnesota and Douglas County Wisconsin.

* Winds... west 15 to 25 mph with gusts up to 40 mph.

* Timing... through early this evening. The winds will peak in the
afternoon. The winds will gradually decrease this evening.

* Impacts... unsecured outdoor objects could be blown around.
Branches and small trees may blow down.

Precautionary/preparedness actions...

A Wind Advisory means that winds of 35 mph are expected. Winds
this strong can make driving difficult... especially for high
profile vehicles. Use extra caution.

Secure loose outdoor objects such as lawn furniture and garbage
cans. Take down hanging planters and other hanging objects such
as wind Chimes and bird feeders.

Be careful in wooded areas as branches and small trees may be
blown down.



G2